createdAt,value
2023-02-02T00:00:15.455Z,10.90
2023-02-02T00:02:47.594Z,10.30
2023-02-02T00:05:19.751Z,10.30
2023-02-02T00:07:51.918Z,8.60
2023-02-02T00:10:24.015Z,11.20
2023-02-02T00:12:58.414Z,10.40
2023-02-02T00:15:33.206Z,9.70
2023-02-02T00:18:05.663Z,11.90
2023-02-02T00:20:37.972Z,10.20
2023-02-02T00:23:09.966Z,11.00
2023-02-02T00:25:41.816Z,13.00
2023-02-02T00:28:13.737Z,10.00
2023-02-02T00:30:46.022Z,12.90
2023-02-02T00:33:18.866Z,11.80
2023-02-02T00:35:53.306Z,12.00
2023-02-02T00:38:25.408Z,10.60
2023-02-02T00:40:58.086Z,7.70
2023-02-02T00:43:30.466Z,10.20
2023-02-02T00:46:03.193Z,10.60
2023-02-02T00:48:35.966Z,8.80
2023-02-02T00:51:08.136Z,9.80
2023-02-02T00:53:41.217Z,10.30
2023-02-02T00:56:13.191Z,10.10
2023-02-02T00:58:45.393Z,9.40
2023-02-02T01:01:21.396Z,10.00
2023-02-02T01:03:53.968Z,8.50
2023-02-02T01:06:27.466Z,8.90
2023-02-02T01:08:59.779Z,7.90
2023-02-02T01:11:32.312Z,7.90
2023-02-02T01:14:04.684Z,7.40
2023-02-02T01:16:36.783Z,5.80
2023-02-02T01:19:09.416Z,6.80
2023-02-02T01:21:41.338Z,6.10
2023-02-02T01:24:13.724Z,6.10
2023-02-02T01:26:57.878Z,5.20
2023-02-02T01:29:30.882Z,5.30
2023-02-02T01:32:06.686Z,5.40
2023-02-02T01:34:42.128Z,4.20
2023-02-02T01:37:14.062Z,4.80
2023-02-02T01:39:46.976Z,3.20
2023-02-02T01:42:23.817Z,3.30
2023-02-02T01:45:25.632Z,3.20
2023-02-02T01:48:00.896Z,2.40
2023-02-02T01:50:36.627Z,2.20
2023-02-02T01:53:10.129Z,2.30
2023-02-02T01:55:43.563Z,1.90
2023-02-02T01:58:21.053Z,1.90
2023-02-02T02:00:55.412Z,3.10
2023-02-02T02:03:30.066Z,2.70
2023-02-02T02:06:07.587Z,3.20
2023-02-02T02:08:43.803Z,2.20
2023-02-02T02:11:16.412Z,2.70
2023-02-02T02:14:06.083Z,2.10
2023-02-02T02:16:54.272Z,2.30
2023-02-02T02:20:14.488Z,1.50
2023-02-02T02:23:22.116Z,2.60
2023-02-02T02:26:36.829Z,2.80
2023-02-02T02:29:43.240Z,3.30
2023-02-02T02:32:32.807Z,2.00
2023-02-02T02:35:11.766Z,2.80
2023-02-02T02:37:53.634Z,4.40
2023-02-02T02:40:35.977Z,3.90
2023-02-02T02:43:15.847Z,2.50
2023-02-02T02:45:48.210Z,4.80
2023-02-02T02:48:21.248Z,3.70
2023-02-02T02:50:53.443Z,4.00
2023-02-02T02:53:26.085Z,3.30
2023-02-02T02:56:08.358Z,7.60
2023-02-02T02:58:47.765Z,6.10
2023-02-02T03:01:30.165Z,4.20
2023-02-02T03:04:11.825Z,6.80
2023-02-02T03:06:49.496Z,4.30
2023-02-02T03:09:29.786Z,7.50
2023-02-02T03:12:02.500Z,6.30
2023-02-02T03:14:38.384Z,6.00
2023-02-02T03:17:10.773Z,5.30
2023-02-02T03:19:42.943Z,6.10
2023-02-02T03:22:15.034Z,4.10
2023-02-02T03:24:47.164Z,6.30
2023-02-02T03:27:19.366Z,12.30
2023-02-02T03:29:51.474Z,4.00
2023-02-02T03:32:24.159Z,5.70
2023-02-02T03:34:56.226Z,5.50
2023-02-02T03:37:28.343Z,5.00
2023-02-02T03:40:00.619Z,5.70
2023-02-02T03:42:33.384Z,5.10
2023-02-02T03:45:05.745Z,6.10
2023-02-02T03:47:38.054Z,8.20
2023-02-02T03:50:11.678Z,5.40
2023-02-02T03:55:15.408Z,5.80
2023-02-02T03:57:47.574Z,10.20
2023-02-02T04:00:20.908Z,8.60
2023-02-02T04:05:23.959Z,8.30
2023-02-02T04:07:56.098Z,11.30
2023-02-02T04:10:28.084Z,10.80
2023-02-02T04:13:00.889Z,11.50
2023-02-02T04:15:32.995Z,7.60
2023-02-02T04:18:05.724Z,5.60
2023-02-02T04:20:38.068Z,8.30
2023-02-02T04:23:10.094Z,9.20
2023-02-02T04:25:50.054Z,6.50
2023-02-02T04:28:24.105Z,10.80
2023-02-02T04:30:57.566Z,8.90
2023-02-02T04:33:30.335Z,6.40
2023-02-02T04:36:02.324Z,8.90
2023-02-02T04:38:34.373Z,6.10
2023-02-02T04:41:14.772Z,6.90
2023-02-02T04:43:47.446Z,3.90
2023-02-02T04:46:20.001Z,7.50
2023-02-02T04:48:53.137Z,9.30
2023-02-02T04:51:25.243Z,9.40
2023-02-02T04:53:58.103Z,6.00
2023-02-02T04:56:30.267Z,6.20
2023-02-02T04:59:02.646Z,7.40
2023-02-02T05:01:35.130Z,7.20
2023-02-02T05:04:07.883Z,10.40
2023-02-02T05:06:39.785Z,8.70
2023-02-02T05:09:11.916Z,10.40
2023-02-02T05:11:44.925Z,10.40
2023-02-02T05:14:18.705Z,8.10
2023-02-02T05:16:50.936Z,7.90
2023-02-02T05:19:23.424Z,10.00
2023-02-02T05:21:56.092Z,7.70
2023-02-02T05:24:29.465Z,7.90
2023-02-02T05:27:01.843Z,8.40
2023-02-02T05:29:34.309Z,8.50
2023-02-02T05:32:07.055Z,9.10
2023-02-02T05:34:39.831Z,9.40
2023-02-02T05:37:11.901Z,12.00
2023-02-02T05:39:43.866Z,11.10
2023-02-02T05:42:15.859Z,11.00
2023-02-02T05:44:51.937Z,13.60
2023-02-02T05:47:24.079Z,14.20
2023-02-02T05:49:57.346Z,14.40
2023-02-02T05:52:31.113Z,11.20
2023-02-02T05:57:34.231Z,12.90
2023-02-02T06:00:08.588Z,14.30
2023-02-02T06:02:43.966Z,12.20
2023-02-02T06:05:16.199Z,17.50
2023-02-02T06:07:48.235Z,13.20
2023-02-02T06:10:21.011Z,12.90
2023-02-02T06:12:53.714Z,16.90
2023-02-02T06:15:28.156Z,15.50
2023-02-02T06:18:00.605Z,13.00
2023-02-02T06:20:33.005Z,14.40
2023-02-02T06:23:06.310Z,14.40
2023-02-02T06:25:38.621Z,17.10
2023-02-02T06:28:11.592Z,13.80
2023-02-02T06:30:44.295Z,15.30
2023-02-02T06:33:16.504Z,17.70
2023-02-02T06:35:49.385Z,15.00
2023-02-02T06:38:21.565Z,14.10
2023-02-02T06:40:53.765Z,12.10
2023-02-02T06:43:26.343Z,13.30
2023-02-02T06:48:31.378Z,12.80
2023-02-02T06:51:03.850Z,12.40
2023-02-02T06:53:36.196Z,12.60
2023-02-02T06:56:13.492Z,10.20
2023-02-02T06:58:45.490Z,13.10
2023-02-02T07:01:18.015Z,10.60
2023-02-02T07:03:53.436Z,10.90
2023-02-02T07:06:27.633Z,6.80
2023-02-02T07:09:02.908Z,9.50
2023-02-02T07:11:37.231Z,9.40
2023-02-02T07:14:12.957Z,12.70
2023-02-02T07:16:45.568Z,10.00
2023-02-02T07:19:17.394Z,10.70
2023-02-02T07:21:49.678Z,9.90
2023-02-02T07:24:21.670Z,9.10
2023-02-02T07:26:54.113Z,11.60
2023-02-02T07:29:26.304Z,11.10
2023-02-02T07:31:58.695Z,9.10
2023-02-02T07:34:31.193Z,7.90
2023-02-02T07:37:03.629Z,11.60
2023-02-02T07:39:35.566Z,10.60
2023-02-02T07:42:08.917Z,9.10
2023-02-02T07:47:12.295Z,9.10
2023-02-02T07:49:46.139Z,8.70
2023-02-02T07:52:18.344Z,9.70
2023-02-02T07:54:50.704Z,10.30
2023-02-02T07:57:25.170Z,8.20
2023-02-02T07:59:57.607Z,7.50
2023-02-02T08:02:30.308Z,11.30
2023-02-02T08:05:02.746Z,9.40
2023-02-02T08:07:37.830Z,8.00
2023-02-02T08:10:11.608Z,11.30
2023-02-02T08:12:43.642Z,8.70
2023-02-02T08:15:17.095Z,6.60
2023-02-02T08:17:50.286Z,8.50
2023-02-02T08:20:24.635Z,8.20
2023-02-02T08:22:58.045Z,9.20
2023-02-02T08:25:30.706Z,6.60
2023-02-02T08:28:03.586Z,11.40
2023-02-02T08:30:36.263Z,5.20
2023-02-02T08:33:08.411Z,4.80
2023-02-02T08:35:44.096Z,4.60
2023-02-02T08:38:16.442Z,5.50
2023-02-02T08:40:48.427Z,5.20
2023-02-02T08:43:20.428Z,5.00
2023-02-02T08:46:02.921Z,6.20
2023-02-02T08:48:38.718Z,5.70
2023-02-02T08:53:42.245Z,7.30
2023-02-02T08:56:16.701Z,4.30
2023-02-02T08:58:50.630Z,5.50
2023-02-02T09:01:24.801Z,5.10
2023-02-02T09:03:59.267Z,6.10
2023-02-02T09:06:33.287Z,6.90
2023-02-02T09:09:06.009Z,7.20
2023-02-02T09:11:38.812Z,5.50
2023-02-02T09:14:12.266Z,8.90
2023-02-02T09:16:46.055Z,7.70
2023-02-02T09:19:18.626Z,5.80
2023-02-02T09:21:52.420Z,5.20
2023-02-02T09:24:24.730Z,7.00
2023-02-02T09:26:56.930Z,5.10
2023-02-02T09:29:29.640Z,6.80
2023-02-02T09:32:01.956Z,6.80
2023-02-02T09:34:34.367Z,8.50
2023-02-02T09:37:06.451Z,6.30
2023-02-02T09:39:38.505Z,5.20
2023-02-02T09:42:36.898Z,7.70
2023-02-02T09:45:27.824Z,4.90
2023-02-02T09:48:07.777Z,6.10
2023-02-02T09:50:47.593Z,5.70
2023-02-02T09:53:26.680Z,6.50
2023-02-02T09:56:03.254Z,6.20
2023-02-02T09:58:40.915Z,6.70
2023-02-02T10:01:17.716Z,8.10
2023-02-02T10:04:03.352Z,7.00
2023-02-02T10:06:39.631Z,8.10
2023-02-02T10:09:25.441Z,7.70
2023-02-02T10:12:02.171Z,8.00
2023-02-02T10:14:40.161Z,7.80
2023-02-02T10:17:37.801Z,10.10
2023-02-02T10:20:35.366Z,8.80
2023-02-02T10:23:17.277Z,8.60
2023-02-02T10:26:00.622Z,6.70
2023-02-02T10:28:52.656Z,8.90
2023-02-02T10:31:38.313Z,8.00
2023-02-02T10:34:18.879Z,9.00
2023-02-02T10:37:03.254Z,9.10
2023-02-02T10:39:52.964Z,11.30
2023-02-02T10:42:37.359Z,16.30
2023-02-02T10:47:45.991Z,9.30
2023-02-02T10:50:23.906Z,9.80
2023-02-02T10:53:02.160Z,10.80
2023-02-02T10:55:43.666Z,10.50
2023-02-02T10:58:27.996Z,8.30
2023-02-02T11:01:03.854Z,11.00
2023-02-02T11:03:36.316Z,8.60
2023-02-02T11:06:28.071Z,6.50
2023-02-02T11:09:01.304Z,8.70
2023-02-02T11:11:41.742Z,9.90
2023-02-02T11:14:20.125Z,8.20
2023-02-02T11:17:04.465Z,8.90
2023-02-02T11:19:39.627Z,9.20
2023-02-02T11:22:30.117Z,8.40
2023-02-02T11:25:04.073Z,8.40
2023-02-02T11:27:41.314Z,6.30
2023-02-02T11:30:29.241Z,6.10
2023-02-02T11:33:01.616Z,7.50
2023-02-02T11:35:33.816Z,7.20
2023-02-02T11:38:16.011Z,7.60
2023-02-02T11:40:54.763Z,5.90
2023-02-02T11:43:30.794Z,9.80
2023-02-02T11:46:06.610Z,7.70
2023-02-02T11:48:40.829Z,7.70
2023-02-02T11:51:25.969Z,6.80
2023-02-02T11:54:08.041Z,9.60
2023-02-02T11:56:41.023Z,6.90
2023-02-02T11:59:31.804Z,6.40
2023-02-02T12:02:27.304Z,8.10
2023-02-02T12:05:34.650Z,7.30
2023-02-02T12:08:09.424Z,5.80
2023-02-02T12:10:48.865Z,5.80
2023-02-02T12:13:31.218Z,5.30
2023-02-02T12:16:14.938Z,8.20
2023-02-02T12:19:01.966Z,6.30
2023-02-02T12:21:45.936Z,6.00
2023-02-02T12:24:32.824Z,8.40
2023-02-02T12:27:24.628Z,8.20
2023-02-02T12:30:15.980Z,7.50
2023-02-02T12:33:11.495Z,4.60
2023-02-02T12:36:02.624Z,7.70
2023-02-02T12:38:55.856Z,6.80
2023-02-02T12:41:40.065Z,6.30
2023-02-02T12:44:26.978Z,6.00
2023-02-02T12:47:10.799Z,5.50
2023-02-02T12:50:00.325Z,5.40
2023-02-02T12:52:45.967Z,8.60
2023-02-02T12:55:37.120Z,7.70
2023-02-02T12:58:16.399Z,6.10
2023-02-02T13:01:07.828Z,7.00
2023-02-02T13:04:01.149Z,6.30
2023-02-02T13:10:01.113Z,7.30
2023-02-02T13:12:36.736Z,6.50
2023-02-02T13:15:14.492Z,6.60
2023-02-02T13:17:51.880Z,6.50
2023-02-02T13:20:34.385Z,6.10
2023-02-02T13:23:15.102Z,6.70
2023-02-02T13:25:52.755Z,7.80
2023-02-02T13:28:37.675Z,7.40
2023-02-02T13:31:18.397Z,5.80
2023-02-02T13:33:56.617Z,7.50
2023-02-02T13:36:39.596Z,6.90
2023-02-02T13:39:19.145Z,6.30
2023-02-02T13:41:53.927Z,5.30
2023-02-02T13:44:33.154Z,6.20
2023-02-02T13:47:13.384Z,7.60
2023-02-02T13:49:51.571Z,7.80
2023-02-02T13:52:47.719Z,7.80
2023-02-02T13:55:58.387Z,8.20
2023-02-02T13:58:56.942Z,11.10
2023-02-02T14:01:32.024Z,13.10
2023-02-02T14:04:05.176Z,9.90
2023-02-02T14:07:00.226Z,6.80
2023-02-02T14:09:34.485Z,13.50
2023-02-02T14:12:09.297Z,14.40
2023-02-02T14:14:47.900Z,17.40
2023-02-02T14:17:49.718Z,21.10
2023-02-02T14:20:45.447Z,16.10
2023-02-02T14:23:54.390Z,10.90
2023-02-02T14:26:47.192Z,8.50
2023-02-02T14:30:01.269Z,11.00
2023-02-02T14:32:43.297Z,7.90
2023-02-02T14:35:53.113Z,8.50
2023-02-02T14:38:55.195Z,6.80
2023-02-02T14:42:08.859Z,7.80
2023-02-02T14:45:22.759Z,7.00
2023-02-02T14:48:00.788Z,8.20
2023-02-02T14:50:47.546Z,9.30
2023-02-02T14:53:30.574Z,6.40
2023-02-02T14:56:06.796Z,9.10
2023-02-02T14:58:46.344Z,7.00
2023-02-02T15:01:30.788Z,8.40
2023-02-02T15:04:27.010Z,8.40
2023-02-02T15:07:22.171Z,7.00
2023-02-02T15:09:57.030Z,7.40
2023-02-02T15:12:37.626Z,9.20
2023-02-02T15:15:23.141Z,7.70
2023-02-02T15:18:15.017Z,10.30
2023-02-02T15:20:52.233Z,7.70
2023-02-02T15:23:32.833Z,11.80
2023-02-02T15:26:10.075Z,8.60
2023-02-02T15:28:48.635Z,14.70
2023-02-02T15:31:30.357Z,16.10
2023-02-02T15:34:06.675Z,17.40
2023-02-02T15:36:44.775Z,12.20
2023-02-02T15:39:31.796Z,10.10
2023-02-02T15:42:25.351Z,8.20
2023-02-02T15:44:57.412Z,12.60
2023-02-02T15:47:34.665Z,20.40
2023-02-02T15:50:19.570Z,10.10
2023-02-02T15:52:53.045Z,9.60
2023-02-02T15:57:57.667Z,10.70
2023-02-02T16:00:33.358Z,10.40
2023-02-02T16:03:12.357Z,13.40
2023-02-02T16:05:51.668Z,10.00
2023-02-02T16:08:29.349Z,10.80
2023-02-02T16:11:10.743Z,10.50
2023-02-02T16:13:45.096Z,9.20
2023-02-02T16:16:27.631Z,9.60
2023-02-02T16:19:14.579Z,8.00
2023-02-02T16:21:54.629Z,8.00
2023-02-02T16:24:30.555Z,11.80
2023-02-02T16:27:07.818Z,8.80
2023-02-02T16:29:44.896Z,8.10
2023-02-02T16:32:37.665Z,9.80
2023-02-02T16:35:34.574Z,9.00
2023-02-02T16:38:25.654Z,9.30
2023-02-02T16:41:11.793Z,10.20
2023-02-02T16:43:47.436Z,7.00
2023-02-02T16:46:46.661Z,8.60
2023-02-02T16:49:25.616Z,9.90
2023-02-02T16:52:18.177Z,8.30
2023-02-02T16:54:59.145Z,8.20
2023-02-02T16:57:36.677Z,7.10
2023-02-02T17:00:23.139Z,8.70
2023-02-02T17:03:02.227Z,5.80
2023-02-02T17:05:51.245Z,8.10
2023-02-02T17:08:34.854Z,9.30
2023-02-02T17:11:26.969Z,12.70
2023-02-02T17:14:21.475Z,9.10
2023-02-02T17:19:30.447Z,9.60
2023-02-02T17:22:07.546Z,8.90
2023-02-02T17:24:43.786Z,8.60
2023-02-02T17:27:19.785Z,9.20
2023-02-02T17:29:51.897Z,8.30
2023-02-02T17:32:25.722Z,9.80
2023-02-02T17:34:59.506Z,9.50
2023-02-02T17:37:34.063Z,8.90
2023-02-02T17:40:11.905Z,8.40
2023-02-02T17:42:47.075Z,7.50
2023-02-02T17:45:24.078Z,9.20
2023-02-02T17:47:58.784Z,8.50
2023-02-02T17:50:33.953Z,8.90
2023-02-02T17:53:08.595Z,11.30
2023-02-02T17:55:46.600Z,16.80
2023-02-02T17:58:21.881Z,26.90
2023-02-02T18:00:59.217Z,24.00
2023-02-02T18:03:35.096Z,23.10
2023-02-02T18:06:09.966Z,23.70
2023-02-02T18:08:43.248Z,31.90
2023-02-02T18:11:19.807Z,21.70
2023-02-02T18:13:58.847Z,18.50
2023-02-02T18:16:31.326Z,30.50
2023-02-02T18:19:05.375Z,30.40
2023-02-02T18:21:43.353Z,23.10
2023-02-02T18:24:19.094Z,28.50
2023-02-02T18:26:52.190Z,22.80
2023-02-02T18:29:26.987Z,24.30
2023-02-02T18:32:01.769Z,19.00
2023-02-02T18:34:34.843Z,31.30
2023-02-02T18:37:09.964Z,24.30
2023-02-02T18:39:43.153Z,19.80
2023-02-02T18:44:48.056Z,20.00
2023-02-02T18:47:20.191Z,20.20
2023-02-02T18:49:52.496Z,22.00
2023-02-02T18:52:25.955Z,12.60
2023-02-02T18:55:00.481Z,12.10
2023-02-02T18:57:34.095Z,9.10
2023-02-02T19:00:08.245Z,18.50
2023-02-02T19:02:40.345Z,10.80
2023-02-02T19:05:30.022Z,11.10
2023-02-02T19:08:04.243Z,10.50
2023-02-02T19:10:36.087Z,12.40
2023-02-02T19:13:18.496Z,11.50
2023-02-02T19:15:52.608Z,9.20
2023-02-02T19:18:28.465Z,10.30
2023-02-02T19:21:00.988Z,8.90
2023-02-02T19:23:36.307Z,8.80
2023-02-02T19:26:19.092Z,7.10
2023-02-02T19:28:56.283Z,6.20
2023-02-02T19:31:29.696Z,9.50
2023-02-02T19:34:04.167Z,11.10
2023-02-02T19:36:42.426Z,9.60
2023-02-02T19:39:19.991Z,14.00
2023-02-02T19:41:56.137Z,10.20
2023-02-02T19:44:32.261Z,7.60
2023-02-02T19:47:05.206Z,19.70
2023-02-02T19:49:38.610Z,9.90
2023-02-02T19:52:30.827Z,20.30
2023-02-02T19:55:22.736Z,7.70
2023-02-02T19:58:00.297Z,9.90
2023-02-02T20:00:34.903Z,8.20
2023-02-02T20:03:12.396Z,5.80
2023-02-02T20:05:47.310Z,6.60
2023-02-02T20:08:35.639Z,7.30
2023-02-02T20:11:32.426Z,7.70
2023-02-02T20:14:23.345Z,8.50
2023-02-02T20:16:59.784Z,6.30
2023-02-02T20:19:38.456Z,7.50
2023-02-02T20:22:26.099Z,7.40
2023-02-02T20:25:02.333Z,7.90
2023-02-02T20:27:36.731Z,7.40
2023-02-02T20:30:23.806Z,6.00
2023-02-02T20:32:58.296Z,6.30
2023-02-02T20:35:43.088Z,7.00
2023-02-02T20:38:22.834Z,6.90
2023-02-02T20:40:56.378Z,5.10
2023-02-02T20:43:28.316Z,6.40
2023-02-02T20:46:01.286Z,5.80
2023-02-02T20:48:34.124Z,9.80
2023-02-02T20:51:08.786Z,6.70
2023-02-02T20:53:41.356Z,5.10
2023-02-02T20:56:14.768Z,6.20
2023-02-02T20:58:48.936Z,7.50
2023-02-02T21:01:23.818Z,9.00
2023-02-02T21:03:55.907Z,6.50
2023-02-02T21:06:28.863Z,8.70
2023-02-02T21:09:01.079Z,5.00
2023-02-02T21:11:33.495Z,7.40
2023-02-02T21:14:05.828Z,6.60
2023-02-02T21:16:38.574Z,8.00
2023-02-02T21:19:11.198Z,7.80
2023-02-02T21:21:43.474Z,6.90
2023-02-02T21:24:15.558Z,6.60
2023-02-02T21:26:51.269Z,5.70
2023-02-02T21:29:26.099Z,6.20
2023-02-02T21:32:01.159Z,7.80
2023-02-02T21:34:33.995Z,6.20
2023-02-02T21:37:13.948Z,7.70
2023-02-02T21:39:51.526Z,5.80
2023-02-02T21:42:24.947Z,6.60
2023-02-02T21:47:35.629Z,6.10
2023-02-02T21:50:19.032Z,7.70
2023-02-02T21:52:51.215Z,6.60
2023-02-02T21:55:37.011Z,7.80
2023-02-02T21:58:20.760Z,8.60
2023-02-02T22:00:53.656Z,7.90
2023-02-02T22:03:39.035Z,6.30
2023-02-02T22:06:31.457Z,6.80
2023-02-02T22:09:15.269Z,7.50
2023-02-02T22:11:51.597Z,8.00
2023-02-02T22:14:27.615Z,7.00
2023-02-02T22:17:02.734Z,6.90
2023-02-02T22:19:39.427Z,6.80
2023-02-02T22:22:22.151Z,7.80
2023-02-02T22:25:01.146Z,9.00
2023-02-02T22:27:43.168Z,7.90
2023-02-02T22:30:25.415Z,7.60
2023-02-02T22:32:58.558Z,6.40
2023-02-02T22:35:31.524Z,6.50
2023-02-02T22:38:03.912Z,4.90
2023-02-02T22:40:36.252Z,7.90
2023-02-02T22:43:10.515Z,6.20
2023-02-02T22:45:42.666Z,6.10
2023-02-02T22:48:15.502Z,7.30
2023-02-02T22:50:48.917Z,6.50
2023-02-02T22:53:21.085Z,6.70
2023-02-02T22:55:56.923Z,7.70
2023-02-02T22:58:29.315Z,6.20
2023-02-02T23:01:01.304Z,5.90
2023-02-02T23:03:33.393Z,6.90
2023-02-02T23:06:05.877Z,6.50
2023-02-02T23:08:38.022Z,7.00
2023-02-02T23:11:10.426Z,11.20
2023-02-02T23:13:42.504Z,6.80
2023-02-02T23:16:14.665Z,6.70
2023-02-02T23:18:46.937Z,9.20
2023-02-02T23:21:19.186Z,7.50
2023-02-02T23:23:51.348Z,9.30
2023-02-02T23:26:23.309Z,7.20
2023-02-02T23:28:55.496Z,7.40
2023-02-02T23:31:27.831Z,6.70
2023-02-02T23:34:00.021Z,7.80
2023-02-02T23:36:32.641Z,5.90
2023-02-02T23:39:04.558Z,6.80
2023-02-02T23:41:36.688Z,5.30
2023-02-02T23:44:09.046Z,6.60
2023-02-02T23:46:42.415Z,5.70
2023-02-02T23:49:15.000Z,5.40
2023-02-02T23:51:47.765Z,5.50
2023-02-02T23:54:19.929Z,6.60
2023-02-02T23:56:53.167Z,6.90
2023-02-02T23:59:25.304Z,6.10
